sensor_id;sensor_type;location;lat;lon;timestamp;temperature;humidity
20594;DHT22;10455;48.732;10.266;2023-03-14T00:04:11;8.10;99.90
20594;DHT22;10455;48.732;10.266;2023-03-14T00:09:14;7.90;99.90
20594;DHT22;10455;48.732;10.266;2023-03-14T00:14:16;7.80;99.90
20594;DHT22;10455;48.732;10.266;2023-03-14T00:19:20;8.00;99.90
20594;DHT22;10455;48.732;10.266;2023-03-14T00:24:24;8.00;99.90
20594;DHT22;10455;48.732;10.266;2023-03-14T00:29:25;8.10;99.90
20594;DHT22;10455;48.732;10.266;2023-03-14T00:34:28;8.20;99.90
20594;DHT22;10455;48.732;10.266;2023-03-14T00:39:32;8.20;99.90
20594;DHT22;10455;48.732;10.266;2023-03-14T00:44:34;8.10;99.90
20594;DHT22;10455;48.732;10.266;2023-03-14T00:49:35;8.10;99.90
20594;DHT22;10455;48.732;10.266;2023-03-14T00:54:39;8.20;99.90
20594;DHT22;10455;48.732;10.266;2023-03-14T00:59:41;8.00;99.90
20594;DHT22;10455;48.732;10.266;2023-03-14T01:04:43;7.90;99.90
20594;DHT22;10455;48.732;10.266;2023-03-14T01:09:46;7.90;99.90
20594;DHT22;10455;48.732;10.266;2023-03-14T01:14:48;7.80;99.90
20594;DHT22;10455;48.732;10.266;2023-03-14T01:19:50;7.80;99.90
20594;DHT22;10455;48.732;10.266;2023-03-14T01:24:53;7.80;99.90
20594;DHT22;10455;48.732;10.266;2023-03-14T01:29:55;7.60;99.90
20594;DHT22;10455;48.732;10.266;2023-03-14T01:34:57;7.70;99.90
20594;DHT22;10455;48.732;10.266;2023-03-14T01:40:00;7.50;99.90
20594;DHT22;10455;48.732;10.266;2023-03-14T01:45:04;7.40;99.90
20594;DHT22;10455;48.732;10.266;2023-03-14T01:50:08;7.50;99.90
20594;DHT22;10455;48.732;10.266;2023-03-14T01:55:14;7.40;99.90
20594;DHT22;10455;48.732;10.266;2023-03-14T02:00:19;7.60;99.90
20594;DHT22;10455;48.732;10.266;2023-03-14T02:05:25;7.60;99.90
20594;DHT22;10455;48.732;10.266;2023-03-14T02:10:32;7.80;99.90
20594;DHT22;10455;48.732;10.266;2023-03-14T02:15:35;7.80;99.90
20594;DHT22;10455;48.732;10.266;2023-03-14T02:20:45;7.60;99.90
20594;DHT22;10455;48.732;10.266;2023-03-14T02:25:53;7.70;99.90
20594;DHT22;10455;48.732;10.266;2023-03-14T02:31:00;7.80;99.90
20594;DHT22;10455;48.732;10.266;2023-03-14T02:36:04;7.60;99.90
20594;DHT22;10455;48.732;10.266;2023-03-14T02:41:07;7.50;99.90
20594;DHT22;10455;48.732;10.266;2023-03-14T02:46:13;7.40;99.90
20594;DHT22;10455;48.732;10.266;2023-03-14T02:51:15;7.60;99.90
20594;DHT22;10455;48.732;10.266;2023-03-14T02:56:17;7.50;99.90
20594;DHT22;10455;48.732;10.266;2023-03-14T03:01:20;7.50;99.90
20594;DHT22;10455;48.732;10.266;2023-03-14T03:06:22;7.40;99.90
20594;DHT22;10455;48.732;10.266;2023-03-14T03:11:24;7.50;99.90
20594;DHT22;10455;48.732;10.266;2023-03-14T03:16:27;7.60;99.90
20594;DHT22;10455;48.732;10.266;2023-03-14T03:21:29;7.50;99.90
20594;DHT22;10455;48.732;10.266;2023-03-14T03:26:31;7.50;99.90
20594;DHT22;10455;48.732;10.266;2023-03-14T03:31:36;7.30;99.90
20594;DHT22;10455;48.732;10.266;2023-03-14T03:36:38;7.40;99.90
20594;DHT22;10455;48.732;10.266;2023-03-14T03:41:40;7.40;99.90
20594;DHT22;10455;48.732;10.266;2023-03-14T03:46:44;7.40;99.90
20594;DHT22;10455;48.732;10.266;2023-03-14T03:51:45;7.40;99.90
20594;DHT22;10455;48.732;10.266;2023-03-14T03:56:47;7.40;99.90
20594;DHT22;10455;48.732;10.266;2023-03-14T04:01:50;7.30;99.90
20594;DHT22;10455;48.732;10.266;2023-03-14T04:06:52;7.30;99.90
20594;DHT22;10455;48.732;10.266;2023-03-14T04:11:54;7.30;99.90
20594;DHT22;10455;48.732;10.266;2023-03-14T04:16:57;7.50;99.90
20594;DHT22;10455;48.732;10.266;2023-03-14T04:21:59;7.50;99.90
20594;DHT22;10455;48.732;10.266;2023-03-14T04:27:01;7.40;99.90
20594;DHT22;10455;48.732;10.266;2023-03-14T04:32:05;7.50;99.90
20594;DHT22;10455;48.732;10.266;2023-03-14T04:37:06;7.50;99.90
20594;DHT22;10455;48.732;10.266;2023-03-14T04:42:08;7.50;99.90
20594;DHT22;10455;48.732;10.266;2023-03-14T04:47:12;7.60;99.90
20594;DHT22;10455;48.732;10.266;2023-03-14T04:52:13;7.60;99.90
20594;DHT22;10455;48.732;10.266;2023-03-14T04:57:15;7.50;99.90
20594;DHT22;10455;48.732;10.266;2023-03-14T05:02:19;7.50;99.90
20594;DHT22;10455;48.732;10.266;2023-03-14T05:07:20;7.30;99.90
20594;DHT22;10455;48.732;10.266;2023-03-14T05:12:22;7.30;99.90
20594;DHT22;10455;48.732;10.266;2023-03-14T05:17:26;7.30;99.90
20594;DHT22;10455;48.732;10.266;2023-03-14T05:22:27;7.20;99.90
20594;DHT22;10455;48.732;10.266;2023-03-14T05:27:29;7.20;99.90
20594;DHT22;10455;48.732;10.266;2023-03-14T05:32:32;7.20;99.90
20594;DHT22;10455;48.732;10.266;2023-03-14T05:37:34;7.10;99.90
20594;DHT22;10455;48.732;10.266;2023-03-14T05:42:36;7.10;99.90
20594;DHT22;10455;48.732;10.266;2023-03-14T05:47:39;7.10;99.90
20594;DHT22;10455;48.732;10.266;2023-03-14T05:52:41;7.10;99.90
20594;DHT22;10455;48.732;10.266;2023-03-14T05:57:43;7.10;99.90
20594;DHT22;10455;48.732;10.266;2023-03-14T06:02:46;7.20;99.90
20594;DHT22;10455;48.732;10.266;2023-03-14T06:07:48;7.20;99.90
20594;DHT22;10455;48.732;10.266;2023-03-14T06:12:50;7.20;99.90
20594;DHT22;10455;48.732;10.266;2023-03-14T06:17:55;7.30;99.90
20594;DHT22;10455;48.732;10.266;2023-03-14T06:22:57;7.30;99.90
20594;DHT22;10455;48.732;10.266;2023-03-14T06:27:59;7.30;99.90
20594;DHT22;10455;48.732;10.266;2023-03-14T06:33:02;7.40;99.90
20594;DHT22;10455;48.732;10.266;2023-03-14T06:38:04;7.50;99.90
20594;DHT22;10455;48.732;10.266;2023-03-14T06:43:06;7.40;99.90
20594;DHT22;10455;48.732;10.266;2023-03-14T06:48:09;7.50;99.90
20594;DHT22;10455;48.732;10.266;2023-03-14T06:53:11;7.50;99.90
20594;DHT22;10455;48.732;10.266;2023-03-14T06:58:13;7.40;99.90
20594;DHT22;10455;48.732;10.266;2023-03-14T07:03:16;7.50;99.90
20594;DHT22;10455;48.732;10.266;2023-03-14T07:08:18;7.70;99.90
20594;DHT22;10455;48.732;10.266;2023-03-14T07:13:20;7.80;99.90
20594;DHT22;10455;48.732;10.266;2023-03-14T07:18:23;7.80;99.90
20594;DHT22;10455;48.732;10.266;2023-03-14T07:23:25;8.20;99.90
20594;DHT22;10455;48.732;10.266;2023-03-14T07:28:27;8.30;99.90
20594;DHT22;10455;48.732;10.266;2023-03-14T07:33:31;8.00;99.90
20594;DHT22;10455;48.732;10.266;2023-03-14T07:38:32;8.10;99.90
20594;DHT22;10455;48.732;10.266;2023-03-14T07:43:34;8.20;99.90
20594;DHT22;10455;48.732;10.266;2023-03-14T07:48:38;8.40;99.90
20594;DHT22;10455;48.732;10.266;2023-03-14T07:53:40;9.40;99.90
20594;DHT22;10455;48.732;10.266;2023-03-14T07:58:43;10.40;99.90
20594;DHT22;10455;48.732;10.266;2023-03-14T08:03:46;12.00;99.90
20594;DHT22;10455;48.732;10.266;2023-03-14T08:08:48;11.60;99.90
20594;DHT22;10455;48.732;10.266;2023-03-14T08:13:50;12.10;99.90
20594;DHT22;10455;48.732;10.266;2023-03-14T08:18:54;12.10;99.90
20594;DHT22;10455;48.732;10.266;2023-03-14T08:23:56;12.00;99.90
20594;DHT22;10455;48.732;10.266;2023-03-14T08:28:58;12.00;99.90
20594;DHT22;10455;48.732;10.266;2023-03-14T08:34:02;11.90;99.90
20594;DHT22;10455;48.732;10.266;2023-03-14T08:39:04;12.60;99.90
20594;DHT22;10455;48.732;10.266;2023-03-14T08:44:08;12.90;99.90
20594;DHT22;10455;48.732;10.266;2023-03-14T08:49:11;13.60;99.90
20594;DHT22;10455;48.732;10.266;2023-03-14T08:54:14;13.70;99.90
20594;DHT22;10455;48.732;10.266;2023-03-14T08:59:16;15.10;99.90
20594;DHT22;10455;48.732;10.266;2023-03-14T09:04:20;14.80;99.90
20594;DHT22;10455;48.732;10.266;2023-03-14T09:09:22;16.70;99.90
20594;DHT22;10455;48.732;10.266;2023-03-14T09:14:24;15.40;99.90
20594;DHT22;10455;48.732;10.266;2023-03-14T09:19:27;15.30;99.90
20594;DHT22;10455;48.732;10.266;2023-03-14T09:24:29;15.60;99.90
20594;DHT22;10455;48.732;10.266;2023-03-14T09:29:31;15.90;99.90
20594;DHT22;10455;48.732;10.266;2023-03-14T09:34:35;16.50;99.90
20594;DHT22;10455;48.732;10.266;2023-03-14T09:39:37;17.20;99.90
20594;DHT22;10455;48.732;10.266;2023-03-14T09:44:42;17.10;99.90
20594;DHT22;10455;48.732;10.266;2023-03-14T09:49:48;16.70;99.90
20594;DHT22;10455;48.732;10.266;2023-03-14T09:54:52;14.90;99.90
20594;DHT22;10455;48.732;10.266;2023-03-14T09:59:57;13.60;99.90
20594;DHT22;10455;48.732;10.266;2023-03-14T10:05:05;14.70;99.90
20594;DHT22;10455;48.732;10.266;2023-03-14T10:10:11;16.60;99.90
20594;DHT22;10455;48.732;10.266;2023-03-14T10:15:24;17.20;99.90
20594;DHT22;10455;48.732;10.266;2023-03-14T10:20:30;17.80;99.90
20594;DHT22;10455;48.732;10.266;2023-03-14T10:25:35;15.40;99.90
20594;DHT22;10455;48.732;10.266;2023-03-14T10:30:39;15.40;99.90
20594;DHT22;10455;48.732;10.266;2023-03-14T10:35:47;15.20;99.90
20594;DHT22;10455;48.732;10.266;2023-03-14T10:40:55;16.60;99.90
20594;DHT22;10455;48.732;10.266;2023-03-14T10:45:59;16.30;99.90
20594;DHT22;10455;48.732;10.266;2023-03-14T10:51:07;16.10;99.90
20594;DHT22;10455;48.732;10.266;2023-03-14T10:56:14;16.30;99.90
20594;DHT22;10455;48.732;10.266;2023-03-14T11:01:32;17.30;99.90
20594;DHT22;10455;48.732;10.266;2023-03-14T11:06:44;16.40;99.90
20594;DHT22;10455;48.732;10.266;2023-03-14T11:11:47;15.10;99.90
20594;DHT22;10455;48.732;10.266;2023-03-14T11:16:53;14.10;99.90
20594;DHT22;10455;48.732;10.266;2023-03-14T11:22:04;13.40;99.90
20594;DHT22;10455;48.732;10.266;2023-03-14T11:27:15;14.40;99.90
20594;DHT22;10455;48.732;10.266;2023-03-14T11:32:27;14.70;99.90
20594;DHT22;10455;48.732;10.266;2023-03-14T11:37:35;16.60;99.90
20594;DHT22;10455;48.732;10.266;2023-03-14T11:42:38;16.90;99.90
20594;DHT22;10455;48.732;10.266;2023-03-14T11:47:44;16.70;99.90
20594;DHT22;10455;48.732;10.266;2023-03-14T11:52:50;16.50;99.90
20594;DHT22;10455;48.732;10.266;2023-03-14T11:57:59;15.90;99.90
20594;DHT22;10455;48.732;10.266;2023-03-14T12:03:09;14.30;99.90
20594;DHT22;10455;48.732;10.266;2023-03-14T12:08:27;14.60;99.90
20594;DHT22;10455;48.732;10.266;2023-03-14T12:13:33;13.30;99.90
20594;DHT22;10455;48.732;10.266;2023-03-14T12:18:38;11.90;99.90
20594;DHT22;10455;48.732;10.266;2023-03-14T12:23:45;10.60;99.90
20594;DHT22;10455;48.732;10.266;2023-03-14T12:28:51;10.10;99.90
20594;DHT22;10455;48.732;10.266;2023-03-14T12:34:01;10.30;99.90
20594;DHT22;10455;48.732;10.266;2023-03-14T12:39:13;10.00;99.90
20594;DHT22;10455;48.732;10.266;2023-03-14T12:44:45;10.00;99.90
20594;DHT22;10455;48.732;10.266;2023-03-14T12:49:49;10.10;99.90
20594;DHT22;10455;48.732;10.266;2023-03-14T12:54:58;10.30;99.90
20594;DHT22;10455;48.732;10.266;2023-03-14T13:00:16;10.10;99.90
20594;DHT22;10455;48.732;10.266;2023-03-14T13:05:20;9.60;99.90
20594;DHT22;10455;48.732;10.266;2023-03-14T13:10:25;9.50;99.90
20594;DHT22;10455;48.732;10.266;2023-03-14T13:15:30;9.30;99.90
20594;DHT22;10455;48.732;10.266;2023-03-14T13:20:36;9.30;99.90
20594;DHT22;10455;48.732;10.266;2023-03-14T13:25:40;9.30;99.90
20594;DHT22;10455;48.732;10.266;2023-03-14T13:30:44;8.90;99.90
20594;DHT22;10455;48.732;10.266;2023-03-14T13:35:48;9.00;99.90
20594;DHT22;10455;48.732;10.266;2023-03-14T13:40:54;9.10;99.90
20594;DHT22;10455;48.732;10.266;2023-03-14T13:46:04;9.20;99.90
20594;DHT22;10455;48.732;10.266;2023-03-14T13:51:11;9.20;99.90
20594;DHT22;10455;48.732;10.266;2023-03-14T13:56:15;9.40;99.90
20594;DHT22;10455;48.732;10.266;2023-03-14T14:01:18;9.50;99.90
20594;DHT22;10455;48.732;10.266;2023-03-14T14:06:30;9.40;99.90
20594;DHT22;10455;48.732;10.266;2023-03-14T14:11:38;10.40;99.90
20594;DHT22;10455;48.732;10.266;2023-03-14T14:16:43;10.40;99.90
20594;DHT22;10455;48.732;10.266;2023-03-14T14:21:46;9.60;99.90
20594;DHT22;10455;48.732;10.266;2023-03-14T14:26:51;9.70;99.90
20594;DHT22;10455;48.732;10.266;2023-03-14T14:32:03;9.70;99.90
20594;DHT22;10455;48.732;10.266;2023-03-14T14:37:19;9.30;99.90
20594;DHT22;10455;48.732;10.266;2023-03-14T14:42:26;8.70;99.90
20594;DHT22;10455;48.732;10.266;2023-03-14T14:47:29;8.50;99.90
20594;DHT22;10455;48.732;10.266;2023-03-14T14:52:36;8.40;99.90
20594;DHT22;10455;48.732;10.266;2023-03-14T14:57:41;8.60;99.90
20594;DHT22;10455;48.732;10.266;2023-03-14T15:02:50;9.10;99.90
20594;DHT22;10455;48.732;10.266;2023-03-14T15:07:53;8.60;99.90
20594;DHT22;10455;48.732;10.266;2023-03-14T15:12:56;8.40;99.90
20594;DHT22;10455;48.732;10.266;2023-03-14T15:17:58;8.40;99.90
20594;DHT22;10455;48.732;10.266;2023-03-14T15:23:00;8.10;99.90
20594;DHT22;10455;48.732;10.266;2023-03-14T15:28:05;8.10;99.90
20594;DHT22;10455;48.732;10.266;2023-03-14T15:33:07;8.50;99.90
20594;DHT22;10455;48.732;10.266;2023-03-14T15:38:14;8.50;99.90
20594;DHT22;10455;48.732;10.266;2023-03-14T15:43:18;8.80;99.90
20594;DHT22;10455;48.732;10.266;2023-03-14T15:48:21;8.50;99.90
20594;DHT22;10455;48.732;10.266;2023-03-14T15:53:23;7.90;99.90
20594;DHT22;10455;48.732;10.266;2023-03-14T15:58:27;7.40;99.90
20594;DHT22;10455;48.732;10.266;2023-03-14T16:03:29;7.20;99.90
20594;DHT22;10455;48.732;10.266;2023-03-14T16:08:31;6.80;99.90
20594;DHT22;10455;48.732;10.266;2023-03-14T16:13:34;6.60;99.90
20594;DHT22;10455;48.732;10.266;2023-03-14T16:18:38;6.50;99.90
20594;DHT22;10455;48.732;10.266;2023-03-14T16:23:40;6.70;99.90
20594;DHT22;10455;48.732;10.266;2023-03-14T16:28:44;7.00;99.90
20594;DHT22;10455;48.732;10.266;2023-03-14T16:33:46;7.00;99.90
20594;DHT22;10455;48.732;10.266;2023-03-14T16:38:48;7.10;99.90
20594;DHT22;10455;48.732;10.266;2023-03-14T16:43:52;7.20;99.90
20594;DHT22;10455;48.732;10.266;2023-03-14T16:48:55;7.10;99.90
20594;DHT22;10455;48.732;10.266;2023-03-14T16:53:59;6.80;99.90
20594;DHT22;10455;48.732;10.266;2023-03-14T16:59:02;6.60;99.90
20594;DHT22;10455;48.732;10.266;2023-03-14T17:04:04;6.40;99.90
20594;DHT22;10455;48.732;10.266;2023-03-14T17:09:08;6.20;99.90
20594;DHT22;10455;48.732;10.266;2023-03-14T17:14:12;6.00;99.90
20594;DHT22;10455;48.732;10.266;2023-03-14T17:19:13;5.90;99.90
20594;DHT22;10455;48.732;10.266;2023-03-14T17:24:15;5.60;99.90
20594;DHT22;10455;48.732;10.266;2023-03-14T17:29:19;5.50;99.90
20594;DHT22;10455;48.732;10.266;2023-03-14T17:34:21;5.40;99.90
20594;DHT22;10455;48.732;10.266;2023-03-14T17:39:23;5.40;99.90
20594;DHT22;10455;48.732;10.266;2023-03-14T17:44:26;5.20;99.90
20594;DHT22;10455;48.732;10.266;2023-03-14T17:49:29;5.20;99.90
20594;DHT22;10455;48.732;10.266;2023-03-14T17:54:30;5.20;99.90
20594;DHT22;10455;48.732;10.266;2023-03-14T17:59:34;5.20;99.90
20594;DHT22;10455;48.732;10.266;2023-03-14T18:04:36;5.40;99.90
20594;DHT22;10455;48.732;10.266;2023-03-14T18:09:37;5.60;99.90
20594;DHT22;10455;48.732;10.266;2023-03-14T18:14:41;6.00;99.90
20594;DHT22;10455;48.732;10.266;2023-03-14T18:19:43;6.20;99.90
20594;DHT22;10455;48.732;10.266;2023-03-14T18:24:45;6.30;99.90
20594;DHT22;10455;48.732;10.266;2023-03-14T18:29:48;6.40;99.90
20594;DHT22;10455;48.732;10.266;2023-03-14T18:34:50;6.30;99.90
20594;DHT22;10455;48.732;10.266;2023-03-14T18:39:52;6.20;99.90
20594;DHT22;10455;48.732;10.266;2023-03-14T18:44:55;6.10;99.90
20594;DHT22;10455;48.732;10.266;2023-03-14T18:49:57;6.00;99.90
20594;DHT22;10455;48.732;10.266;2023-03-14T18:54:59;5.80;99.90
20594;DHT22;10455;48.732;10.266;2023-03-14T19:00:03;5.80;99.90
20594;DHT22;10455;48.732;10.266;2023-03-14T19:05:07;5.60;99.90
20594;DHT22;10455;48.732;10.266;2023-03-14T19:10:10;5.20;99.90
20594;DHT22;10455;48.732;10.266;2023-03-14T19:15:13;5.20;99.90
20594;DHT22;10455;48.732;10.266;2023-03-14T19:20:15;5.30;99.90
20594;DHT22;10455;48.732;10.266;2023-03-14T19:25:17;5.20;99.90
20594;DHT22;10455;48.732;10.266;2023-03-14T19:30:20;5.00;99.90
20594;DHT22;10455;48.732;10.266;2023-03-14T19:35:22;5.20;99.90
20594;DHT22;10455;48.732;10.266;2023-03-14T19:40:24;4.70;99.90
20594;DHT22;10455;48.732;10.266;2023-03-14T19:45:27;3.90;99.90
20594;DHT22;10455;48.732;10.266;2023-03-14T19:50:32;3.50;99.90
20594;DHT22;10455;48.732;10.266;2023-03-14T19:55:34;3.50;99.90
20594;DHT22;10455;48.732;10.266;2023-03-14T20:00:38;3.40;99.90
20594;DHT22;10455;48.732;10.266;2023-03-14T20:05:41;3.20;99.90
20594;DHT22;10455;48.732;10.266;2023-03-14T20:10:44;3.00;99.90
20594;DHT22;10455;48.732;10.266;2023-03-14T20:15:49;3.00;99.90
20594;DHT22;10455;48.732;10.266;2023-03-14T20:20:52;3.00;99.90
20594;DHT22;10455;48.732;10.266;2023-03-14T20:25:55;3.00;99.90
20594;DHT22;10455;48.732;10.266;2023-03-14T20:30:58;3.00;99.90
20594;DHT22;10455;48.732;10.266;2023-03-14T20:36:00;3.00;99.90
20594;DHT22;10455;48.732;10.266;2023-03-14T20:41:03;3.00;99.90
20594;DHT22;10455;48.732;10.266;2023-03-14T20:46:06;2.80;99.90
20594;DHT22;10455;48.732;10.266;2023-03-14T20:51:08;2.80;99.90
20594;DHT22;10455;48.732;10.266;2023-03-14T20:56:11;2.90;99.90
20594;DHT22;10455;48.732;10.266;2023-03-14T21:01:15;3.10;99.90
20594;DHT22;10455;48.732;10.266;2023-03-14T21:06:17;3.20;99.90
20594;DHT22;10455;48.732;10.266;2023-03-14T21:11:18;3.40;99.90
20594;DHT22;10455;48.732;10.266;2023-03-14T21:16:22;3.40;99.90
20594;DHT22;10455;48.732;10.266;2023-03-14T21:21:23;3.30;99.90
20594;DHT22;10455;48.732;10.266;2023-03-14T21:26:25;3.10;99.90
20594;DHT22;10455;48.732;10.266;2023-03-14T21:31:29;3.30;99.90
20594;DHT22;10455;48.732;10.266;2023-03-14T21:36:31;3.40;99.90
20594;DHT22;10455;48.732;10.266;2023-03-14T21:41:33;3.60;99.90
20594;DHT22;10455;48.732;10.266;2023-03-14T21:46:36;3.70;99.90
20594;DHT22;10455;48.732;10.266;2023-03-14T21:51:38;3.60;99.90
20594;DHT22;10455;48.732;10.266;2023-03-14T21:56:41;3.40;99.90
20594;DHT22;10455;48.732;10.266;2023-03-14T22:01:44;3.30;99.90
20594;DHT22;10455;48.732;10.266;2023-03-14T22:06:46;3.10;99.90
20594;DHT22;10455;48.732;10.266;2023-03-14T22:11:48;3.10;99.90
20594;DHT22;10455;48.732;10.266;2023-03-14T22:16:51;3.10;99.90
20594;DHT22;10455;48.732;10.266;2023-03-14T22:21:53;3.20;99.90
20594;DHT22;10455;48.732;10.266;2023-03-14T22:26:55;3.30;99.90
20594;DHT22;10455;48.732;10.266;2023-03-14T22:31:59;3.30;99.90
20594;DHT22;10455;48.732;10.266;2023-03-14T22:37:02;3.30;99.90
20594;DHT22;10455;48.732;10.266;2023-03-14T22:42:05;3.50;99.90
20594;DHT22;10455;48.732;10.266;2023-03-14T22:47:08;3.70;99.90
20594;DHT22;10455;48.732;10.266;2023-03-14T22:52:10;3.50;99.90
20594;DHT22;10455;48.732;10.266;2023-03-14T22:57:12;3.00;99.90
20594;DHT22;10455;48.732;10.266;2023-03-14T23:02:16;2.50;99.90
20594;DHT22;10455;48.732;10.266;2023-03-14T23:07:17;2.40;99.90
20594;DHT22;10455;48.732;10.266;2023-03-14T23:12:19;2.40;99.90
20594;DHT22;10455;48.732;10.266;2023-03-14T23:17:23;2.50;99.90
20594;DHT22;10455;48.732;10.266;2023-03-14T23:22:25;2.50;99.90
20594;DHT22;10455;48.732;10.266;2023-03-14T23:27:32;2.40;99.90
20594;DHT22;10455;48.732;10.266;2023-03-14T23:32:35;2.40;99.90
20594;DHT22;10455;48.732;10.266;2023-03-14T23:37:38;2.40;99.90
20594;DHT22;10455;48.732;10.266;2023-03-14T23:42:39;2.50;99.90
20594;DHT22;10455;48.732;10.266;2023-03-14T23:47:43;2.50;99.90
20594;DHT22;10455;48.732;10.266;2023-03-14T23:52:45;2.50;99.90
20594;DHT22;10455;48.732;10.266;2023-03-14T23:57:46;2.50;99.90
